Illizi, Algeria
Current Conditions -  °F | °C
As of 2:00 AM on Tuesday 27 Jan 2015 (Local Time) from DAAP Reporting Station
Clear Clear  
Wind Chill: 32°   Ceiling: Unl
Heat Index: 39°   Visibility: 5mi
Dew Point: 21°   Wind: 12mph
Humidity: 49%   Direction: 270°W
Pressure: 30.24"   Gusts: NA
Location:  26.5°N, 8.42°E
Report Text: DAAP 270100Z 27010KT 8000 NSC 04/M06 Q1024
Loading
Personal Weather Stations






























Interactive Weather Map New forecast layout! Learn more

10-Day Weather Forecast

Advertisements
Track Severe Weather on mobile